Terminal Aerodrome Forecast
Issued by NWS Cleveland, OH

Home | Current Version | Previous Version | Graphics & Text | Print | Product List | Glossary On
Versions: 1 2 3 4 5 6 7 8 9 10 11 12 13 14 15
000
FTUS41 KCLE 271700
TAFTOL
TAF
KTOL 271738Z 2718/2818 18012G20KT P6SM BKN200
     FM272300 20008KT P6SM BKN150 WS020/22040KT
     FM281000 22010KT P6SM BKN050 WS020/22045KT
     FM281400 22015G25KT 5SM -SHRA VCTS BKN020 OVC040CB=

USA.gov is the U.S. government's official web portal to all federal, state and local government web resources and services.